Time;durP1;ratioP1;P1;durP2;ratioP2;P2;SDS_P1;SDS_P2;PMS_P1;PMS_P2;Temp;Humidity;BMP_temperature;BMP_pressure;BME280_temperature;BME280_humidity;BME280_pressure;Samples;Min_cycle;Max_cycle;Signal;HPM_P1;HPM_P2
2022/07/07 00:02:36;;;;;;;4.63;1.10;;;;;;;;;;10418467;28;20040;-55
2022/07/07 00:07:37;;;;;;;3.58;0.93;;;;;;;;;;10428429;28;20087;-55
2022/07/07 00:12:37;;;;;;;1.15;1.05;;;;;;;;;;10410158;28;20472;-59
2022/07/07 00:17:38;;;;;;;0.90;0.90;;;;;;;;;;10410165;28;20021;-54
2022/07/07 00:22:39;;;;;;;1.27;1.00;;;;;;;;;;10407596;28;20022;-55
2022/07/07 00:27:39;;;;;;;4.30;1.00;;;;;;;;;;10415107;28;20136;-53
2022/07/07 00:32:40;;;;;;;1.73;1.10;;;;;;;;;;10419157;28;20045;-54
2022/07/07 00:37:41;;;;;;;2.67;1.20;;;;;;;;;;10416558;28;20163;-54
2022/07/07 00:42:41;;;;;;;1.05;0.90;;;;;;;;;;10419883;28;20022;-55
2022/07/07 00:47:42;;;;;;;1.60;1.10;;;;;;;;;;10423854;28;20028;-54
2022/07/07 00:52:43;;;;;;;2.13;0.95;;;;;;;;;;10414719;28;20189;-54
2022/07/07 00:57:44;;;;;;;5.32;1.00;;;;;;;;;;10417922;28;20619;-60
2022/07/07 01:02:44;;;;;;;1.50;1.10;;;;;;;;;;10414281;28;20397;-57
2022/07/07 01:07:46;;;;;;;2.15;1.17;;;;;;;;;;10418724;28;20032;-59
2022/07/07 01:12:46;;;;;;;8.82;1.50;;;;;;;;;;10411028;28;20053;-59
2022/07/07 01:17:47;;;;;;;3.63;1.50;;;;;;;;;;10416014;28;20112;-60
2022/07/07 01:22:51;;;;;;;1.83;1.13;;;;;;;;;;10390146;28;20416;-59
2022/07/07 01:27:52;;;;;;;6.60;1.00;;;;;;;;;;10361987;28;20124;-59
2022/07/07 01:32:52;;;;;;;2.85;1.17;;;;;;;;;;10360566;28;20408;-59
2022/07/07 01:37:53;;;;;;;3.28;1.20;;;;;;;;;;10384243;28;20484;-59
2022/07/07 01:42:54;;;;;;;2.08;0.93;;;;;;;;;;10419881;28;20611;-59
2022/07/07 01:47:54;;;;;;;1.17;1.00;;;;;;;;;;10414049;28;20029;-59
2022/07/07 01:52:55;;;;;;;3.20;1.30;;;;;;;;;;10412654;28;20029;-59
2022/07/07 01:57:55;;;;;;;2.30;1.17;;;;;;;;;;10417143;28;20040;-59
2022/07/07 02:02:56;;;;;;;1.45;1.10;;;;;;;;;;10414111;28;20512;-59
2022/07/07 02:07:56;;;;;;;2.10;1.17;;;;;;;;;;10413395;28;20386;-59
2022/07/07 02:12:57;;;;;;;2.05;1.00;;;;;;;;;;10413176;28;20413;-58
2022/07/07 02:17:58;;;;;;;2.22;1.10;;;;;;;;;;10408095;28;20477;-58
2022/07/07 02:22:59;;;;;;;1.65;1.00;;;;;;;;;;10409321;28;20033;-56
2022/07/07 02:27:59;;;;;;;2.47;1.00;;;;;;;;;;10417420;28;20029;-58
2022/07/07 02:33:00;;;;;;;2.15;1.00;;;;;;;;;;10409617;28;20025;-57
2022/07/07 02:38:01;;;;;;;2.17;1.00;;;;;;;;;;10420373;28;20045;-59
2022/07/07 02:43:01;;;;;;;1.40;1.10;;;;;;;;;;10424699;28;20040;-59
2022/07/07 02:48:02;;;;;;;1.42;0.98;;;;;;;;;;10413373;28;20038;-59
2022/07/07 02:53:03;;;;;;;1.83;1.13;;;;;;;;;;10406849;28;20511;-59
2022/07/07 02:58:07;;;;;;;2.85;1.10;;;;;;;;;;10408318;28;20382;-59
2022/07/07 03:03:08;;;;;;;1.42;0.70;;;;;;;;;;10414215;28;20027;-59
2022/07/07 03:08:09;;;;;;;1.27;0.80;;;;;;;;;;10415298;28;20032;-59
2022/07/07 03:13:10;;;;;;;3.75;1.02;;;;;;;;;;10415306;28;20025;-59
2022/07/07 03:18:10;;;;;;;3.70;1.45;;;;;;;;;;10413773;28;20041;-59
2022/07/07 03:23:11;;;;;;;1.17;1.00;;;;;;;;;;10405827;28;20033;-59
2022/07/07 03:28:12;;;;;;;2.60;0.98;;;;;;;;;;10420292;28;20048;-56
2022/07/07 03:33:12;;;;;;;2.20;0.95;;;;;;;;;;10408770;28;20030;-56
2022/07/07 03:38:13;;;;;;;1.25;0.98;;;;;;;;;;10404402;28;20188;-56
2022/07/07 03:43:13;;;;;;;1.25;0.90;;;;;;;;;;10420077;28;20473;-56
2022/07/07 03:48:14;;;;;;;1.65;0.90;;;;;;;;;;10407275;28;20021;-55
2022/07/07 03:53:15;;;;;;;0.93;0.85;;;;;;;;;;10415065;28;20025;-59
2022/07/07 03:58:15;;;;;;;0.85;0.80;;;;;;;;;;10423788;28;20146;-58
2022/07/07 04:03:16;;;;;;;4.32;0.90;;;;;;;;;;10422845;28;20087;-58
2022/07/07 04:08:16;;;;;;;0.82;0.80;;;;;;;;;;10427358;28;20552;-59
2022/07/07 04:13:17;;;;;;;3.08;1.10;;;;;;;;;;10425500;28;20030;-59
2022/07/07 04:18:18;;;;;;;1.48;1.02;;;;;;;;;;10417279;28;20029;-58
2022/07/07 04:23:18;;;;;;;1.08;0.80;;;;;;;;;;10419597;28;20027;-59
2022/07/07 04:28:20;;;;;;;0.90;0.90;;;;;;;;;;10407961;28;20038;-59
2022/07/07 04:33:20;;;;;;;1.55;0.80;;;;;;;;;;10426605;28;20068;-59
2022/07/07 04:38:21;;;;;;;1.20;1.10;;;;;;;;;;10440682;28;20052;-59
2022/07/07 04:43:21;;;;;;;1.58;1.15;;;;;;;;;;10429074;28;20025;-59
2022/07/07 04:48:22;;;;;;;1.45;0.95;;;;;;;;;;10413025;28;20032;-59
2022/07/07 04:53:23;;;;;;;0.80;0.80;;;;;;;;;;10409446;28;20036;-59
2022/07/07 04:58:23;;;;;;;1.25;0.90;;;;;;;;;;10421953;28;20044;-59
2022/07/07 05:03:24;;;;;;;4.60;0.90;;;;;;;;;;10419526;28;20033;-58
2022/07/07 05:08:25;;;;;;;1.27;0.80;;;;;;;;;;10412883;28;20028;-53
2022/07/07 05:13:26;;;;;;;7.82;1.20;;;;;;;;;;10411448;28;20040;-59
2022/07/07 05:18:26;;;;;;;6.50;1.50;;;;;;;;;;10423928;28;20040;-59
2022/07/07 05:23:27;;;;;;;4.07;1.10;;;;;;;;;;10423044;23;20050;-51
2022/07/07 05:28:30;;;;;;;1.27;0.75;;;;;;;;;;10400365;28;20029;-48
2022/07/07 05:33:30;;;;;;;3.60;0.93;;;;;;;;;;10396168;28;20477;-48
2022/07/07 05:38:32;;;;;;;4.93;1.30;;;;;;;;;;10356093;28;20037;-47
2022/07/07 05:43:34;;;;;;;4.50;1.30;;;;;;;;;;10362009;28;20037;-51
2022/07/07 05:48:34;;;;;;;2.85;1.40;;;;;;;;;;10367137;28;20401;-47
2022/07/07 05:53:35;;;;;;;6.38;1.25;;;;;;;;;;10347181;28;20378;-45
2022/07/07 05:58:36;;;;;;;13.27;2.22;;;;;;;;;;10361966;28;20268;-47
2022/07/07 06:03:36;;;;;;;7.30;1.63;;;;;;;;;;10373509;28;20041;-47
2022/07/07 06:08:37;;;;;;;5.13;1.52;;;;;;;;;;10373807;28;20094;-47
2022/07/07 06:13:38;;;;;;;8.57;1.90;;;;;;;;;;10383863;28;20033;-47
2022/07/07 06:18:38;;;;;;;9.70;1.85;;;;;;;;;;10385514;28;20041;-47
2022/07/07 06:23:39;;;;;;;6.40;2.15;;;;;;;;;;10381789;28;20049;-50
2022/07/07 06:28:39;;;;;;;9.93;2.00;;;;;;;;;;10374539;28;20038;-47
2022/07/07 06:33:40;;;;;;;8.20;1.85;;;;;;;;;;10364993;28;20033;-54
2022/07/07 06:38:41;;;;;;;9.70;1.42;;;;;;;;;;10365586;28;20049;-52
2022/07/07 06:43:41;;;;;;;9.45;2.28;;;;;;;;;;10365815;28;20153;-50
2022/07/07 06:48:42;;;;;;;6.13;1.70;;;;;;;;;;10363624;28;20067;-49
2022/07/07 06:53:42;;;;;;;13.63;1.90;;;;;;;;;;10361118;28;20375;-54
2022/07/07 06:58:43;;;;;;;7.22;1.65;;;;;;;;;;10369190;28;20029;-51
2022/07/07 07:03:44;;;;;;;4.45;1.83;;;;;;;;;;10373237;28;20121;-47
2022/07/07 07:08:44;;;;;;;7.15;1.50;;;;;;;;;;10376482;28;20508;-51
2022/07/07 07:13:47;;;;;;;3.65;1.88;;;;;;;;;;10375520;28;20033;-58
2022/07/07 07:18:48;;;;;;;4.93;1.60;;;;;;;;;;10375684;28;20448;-47
2022/07/07 07:23:48;;;;;;;5.40;1.40;;;;;;;;;;10383853;28;20111;-46
2022/07/07 07:28:49;;;;;;;4.28;1.52;;;;;;;;;;10377080;28;20041;-47
2022/07/07 07:33:50;;;;;;;11.70;1.90;;;;;;;;;;10374366;28;20030;-52
2022/07/07 07:38:50;;;;;;;6.50;1.30;;;;;;;;;;10389566;28;20045;-53
2022/07/07 07:43:51;;;;;;;3.80;1.65;;;;;;;;;;10398783;28;20045;-51
2022/07/07 07:48:51;;;;;;;2.75;1.40;;;;;;;;;;10380505;28;20038;-51
2022/07/07 07:53:52;;;;;;;5.30;1.40;;;;;;;;;;10385112;28;20045;-49
2022/07/07 07:58:52;;;;;;;4.85;1.48;;;;;;;;;;10380545;28;20080;-51
2022/07/07 08:03:53;;;;;;;1.60;1.45;;;;;;;;;;10389867;28;20041;-53
2022/07/07 08:08:54;;;;;;;4.38;1.60;;;;;;;;;;10384884;28;20096;-48
2022/07/07 08:13:54;;;;;;;6.88;1.52;;;;;;;;;;10385519;28;20034;-52
2022/07/07 08:18:55;;;;;;;3.38;1.50;;;;;;;;;;10384620;28;20086;-49
2022/07/07 08:23:55;;;;;;;4.20;1.48;;;;;;;;;;10385763;28;20046;-54
2022/07/07 08:28:56;;;;;;;11.40;1.70;;;;;;;;;;10387408;28;20026;-47
2022/07/07 08:33:56;;;;;;;4.63;1.27;;;;;;;;;;10378361;28;20263;-58
2022/07/07 08:38:58;;;;;;;4.32;1.40;;;;;;;;;;10378034;28;20508;-53
2022/07/07 08:43:59;;;;;;;6.03;1.42;;;;;;;;;;10372739;28;20038;-55
2022/07/07 08:48:59;;;;;;;2.97;1.40;;;;;;;;;;10366179;28;20076;-61
2022/07/07 08:54:01;;;;;;;5.25;1.65;;;;;;;;;;10378111;28;20041;-55
2022/07/07 08:59:02;;;;;;;3.53;1.60;;;;;;;;;;10376776;28;20033;-50
2022/07/07 09:04:04;;;;;;;4.75;1.30;;;;;;;;;;10379045;28;20482;-55
2022/07/07 09:09:05;;;;;;;3.55;1.38;;;;;;;;;;10372420;28;20120;-66
2022/07/07 09:14:11;;;;;;;3.50;1.55;;;;;;;;;;10366531;28;20124;-48
2022/07/07 09:19:25;;;;;;;6.82;1.98;;;;;;;;;;10379324;28;20083;-62
2022/07/07 09:24:26;;;;;;;15.43;1.77;;;;;;;;;;10368170;28;20046;-48
2022/07/07 09:29:27;;;;;;;7.63;1.45;;;;;;;;;;10380590;28;20034;-49
2022/07/07 09:34:38;;;;;;;2.63;1.60;;;;;;;;;;10391884;28;20065;-54
2022/07/07 09:39:55;;;;;;;2.28;1.30;;;;;;;;;;10373038;28;20109;-50
2022/07/07 09:45:09;;;;;;;6.28;1.60;;;;;;;;;;10370833;28;20038;-48
2022/07/07 09:50:15;;;;;;;1.70;1.38;;;;;;;;;;10372710;28;20049;-50
2022/07/07 09:55:15;;;;;;;4.97;1.58;;;;;;;;;;10375835;28;20080;-49
2022/07/07 10:00:16;;;;;;;5.68;1.40;;;;;;;;;;10377113;28;20104;-53
2022/07/07 10:05:19;;;;;;;1.42;1.33;;;;;;;;;;10379771;28;20033;-48
2022/07/07 10:10:21;;;;;;;5.05;1.60;;;;;;;;;;10370527;28;20328;-49
2022/07/07 10:15:23;;;;;;;3.20;1.67;;;;;;;;;;10383810;28;20148;-48
2022/07/07 10:20:24;;;;;;;2.28;1.50;;;;;;;;;;10379543;28;20091;-52
2022/07/07 10:25:25;;;;;;;3.00;1.60;;;;;;;;;;10388500;28;20099;-51
2022/07/07 10:30:31;;;;;;;3.20;1.63;;;;;;;;;;10375237;28;20030;-51
2022/07/07 10:35:42;;;;;;;3.22;1.50;;;;;;;;;;10365524;28;20366;-49
2022/07/07 10:40:52;;;;;;;2.92;1.52;;;;;;;;;;10369135;28;20037;-58
2022/07/07 10:45:55;;;;;;;3.13;1.40;;;;;;;;;;10369247;28;20113;-48
2022/07/07 10:51:24;;;;;;;2.50;1.50;;;;;;;;;;10372910;28;20064;-48
2022/07/07 10:56:25;;;;;;;4.47;1.75;;;;;;;;;;10367934;28;20038;-49
2022/07/07 11:01:29;;;;;;;2.15;1.40;;;;;;;;;;10369560;28;20029;-54
2022/07/07 11:07:13;;;;;;;1.67;1.35;;;;;;;;;;10376221;28;20034;-50
2022/07/07 11:12:53;;;;;;;1.50;1.40;;;;;;;;;;10380576;28;20064;-53
2022/07/07 11:17:55;;;;;;;3.45;1.70;;;;;;;;;;10379848;28;20044;-53
2022/07/07 11:23:10;;;;;;;2.70;1.50;;;;;;;;;;10369312;28;20042;-54
2022/07/07 11:28:11;;;;;;;2.92;1.40;;;;;;;;;;10363192;28;20631;-47
2022/07/07 11:33:12;;;;;;;1.63;1.27;;;;;;;;;;10357685;28;20494;-53
2022/07/07 11:38:12;;;;;;;4.03;1.30;;;;;;;;;;10357894;28;20092;-51
2022/07/07 11:43:24;;;;;;;2.83;1.50;;;;;;;;;;10362546;28;20038;-58
2022/07/07 11:48:33;;;;;;;4.20;1.40;;;;;;;;;;10354396;28;20075;-50
2022/07/07 11:53:35;;;;;;;1.33;1.23;;;;;;;;;;10367822;28;20030;-53
2022/07/07 11:58:36;;;;;;;4.38;1.50;;;;;;;;;;10366481;28;20060;-53
2022/07/07 12:03:37;;;;;;;4.07;1.42;;;;;;;;;;10369028;28;20029;-53
2022/07/07 12:08:38;;;;;;;2.72;1.27;;;;;;;;;;10375265;28;20029;-50
2022/07/07 12:13:38;;;;;;;3.72;1.60;;;;;;;;;;10375487;28;20037;-56
2022/07/07 12:18:41;;;;;;;2.13;1.40;;;;;;;;;;10388602;28;20087;-60
2022/07/07 12:23:44;;;;;;;1.60;1.23;;;;;;;;;;10365986;28;20053;-57
2022/07/07 12:28:45;;;;;;;2.90;1.80;;;;;;;;;;10358071;28;20034;-52
2022/07/07 12:33:46;;;;;;;6.05;1.60;;;;;;;;;;10367870;28;20079;-54
2022/07/07 12:38:59;;;;;;;2.35;1.63;;;;;;;;;;10366997;28;20033;-52
2022/07/07 12:44:21;;;;;;;3.13;1.80;;;;;;;;;;10378972;28;20037;-60
2022/07/07 12:49:21;;;;;;;3.80;1.70;;;;;;;;;;10369994;28;20029;-51
2022/07/07 12:54:27;;;;;;;5.15;2.28;;;;;;;;;;10379840;28;20547;-54
2022/07/07 12:59:44;;;;;;;6.95;1.70;;;;;;;;;;10369213;28;21806;-57
2022/07/07 13:04:45;;;;;;;;;;;;;;;;;;10374049;28;20282;-52
2022/07/07 13:09:46;;;;;;;14.38;2.03;;;;;;;;;;10369035;28;20450;-59
2022/07/07 13:14:47;;;;;;;8.45;1.95;;;;;;;;;;10398897;28;20161;-48
2022/07/07 13:19:50;;;;;;;6.38;2.10;;;;;;;;;;10383793;28;20042;-53
2022/07/07 13:24:51;;;;;;;9.30;2.03;;;;;;;;;;10378537;28;20053;-55
2022/07/07 13:29:51;;;;;;;12.95;2.58;;;;;;;;;;10379644;28;20502;-48
2022/07/07 13:34:52;;;;;;;6.53;2.40;;;;;;;;;;10366930;28;20370;-48
2022/07/07 13:39:53;;;;;;;7.50;2.15;;;;;;;;;;10368362;28;20041;-49
2022/07/07 13:44:53;;;;;;;8.85;2.50;;;;;;;;;;10363103;28;20245;-48
2022/07/07 13:49:55;;;;;;;13.65;2.28;;;;;;;;;;10361199;28;20033;-51
2022/07/07 13:54:55;;;;;;;8.43;1.98;;;;;;;;;;10372997;28;20035;-49
2022/07/07 13:59:56;;;;;;;12.57;2.38;;;;;;;;;;10376239;28;20038;-58
2022/07/07 14:04:57;;;;;;;6.65;2.30;;;;;;;;;;10377818;28;20045;-55
2022/07/07 14:09:59;;;;;;;7.53;2.15;;;;;;;;;;10383308;28;20161;-48
2022/07/07 14:14:59;;;;;;;10.68;2.60;;;;;;;;;;10379115;28;20033;-53
2022/07/07 14:20:01;;;;;;;13.40;2.90;;;;;;;;;;10376551;28;20107;-50
2022/07/07 14:25:04;;;;;;;5.95;2.50;;;;;;;;;;10371469;28;20083;-58
2022/07/07 14:30:06;;;;;;;10.18;2.45;;;;;;;;;;10374881;28;20045;-49
2022/07/07 14:35:07;;;;;;;9.57;3.42;;;;;;;;;;10366728;28;20484;-49
2022/07/07 14:40:08;;;;;;;11.15;2.97;;;;;;;;;;10362328;28;20029;-59
2022/07/07 14:45:08;;;;;;;58.05;4.57;;;;;;;;;;10365107;28;20036;-55
2022/07/07 14:50:09;;;;;;;96.00;7.18;;;;;;;;;;10359381;28;20384;-49
2022/07/07 14:55:10;;;;;;;53.10;5.72;;;;;;;;;;10367451;28;20025;-47
2022/07/07 15:00:11;;;;;;;47.55;4.55;;;;;;;;;;10373336;28;20120;-50
2022/07/07 15:05:11;;;;;;;29.80;3.45;;;;;;;;;;10372771;28;20049;-49
2022/07/07 15:10:12;;;;;;;13.13;3.22;;;;;;;;;;10370589;28;20391;-46
2022/07/07 15:15:12;;;;;;;10.15;2.65;;;;;;;;;;10365465;28;20481;-47
2022/07/07 15:20:14;;;;;;;11.98;2.80;;;;;;;;;;10366812;28;20108;-52
2022/07/07 15:25:15;;;;;;;7.70;2.60;;;;;;;;;;10374305;28;20451;-51
2022/07/07 15:30:15;;;;;;;24.88;2.65;;;;;;;;;;10365882;28;20029;-50
2022/07/07 15:35:17;;;;;;;11.60;3.08;;;;;;;;;;10370541;28;20504;-54
2022/07/07 15:40:17;;;;;;;9.02;2.72;;;;;;;;;;10370387;28;20501;-54
2022/07/07 15:45:19;;;;;;;10.85;2.60;;;;;;;;;;10372950;28;20044;-55
2022/07/07 15:50:19;;;;;;;12.07;2.78;;;;;;;;;;10353701;28;20489;-55
2022/07/07 15:55:21;;;;;;;5.72;2.38;;;;;;;;;;10374851;28;20025;-53
2022/07/07 16:00:22;;;;;;;14.18;3.67;;;;;;;;;;10370594;28;20034;-53
2022/07/07 16:05:23;;;;;;;11.02;4.57;;;;;;;;;;10365279;28;20034;-56
2022/07/07 16:10:24;;;;;;;10.57;4.00;;;;;;;;;;10378698;28;20038;-54
2022/07/07 16:15:27;;;;;;;10.48;4.38;;;;;;;;;;10370940;28;20049;-56
2022/07/07 16:20:28;;;;;;;10.75;3.50;;;;;;;;;;10365613;28;20172;-57
2022/07/07 16:25:28;;;;;;;13.15;3.70;;;;;;;;;;10373179;28;20042;-57
2022/07/07 16:30:29;;;;;;;11.13;3.47;;;;;;;;;;10371613;28;20030;-51
2022/07/07 16:35:30;;;;;;;9.23;3.58;;;;;;;;;;10368423;28;20034;-55
2022/07/07 16:40:30;;;;;;;10.75;3.38;;;;;;;;;;10379947;28;20730;-57
2022/07/07 16:45:31;;;;;;;7.35;2.92;;;;;;;;;;10374283;28;20022;-57
2022/07/07 16:50:32;;;;;;;5.75;2.80;;;;;;;;;;10353291;28;20034;-55
2022/07/07 16:55:32;;;;;;;8.05;3.03;;;;;;;;;;10359247;28;20091;-57
2022/07/07 17:00:33;;;;;;;11.80;2.70;;;;;;;;;;10370390;28;20025;-55
2022/07/07 17:05:33;;;;;;;5.72;2.83;;;;;;;;;;10367004;28;20506;-57
2022/07/07 17:10:34;;;;;;;7.65;2.88;;;;;;;;;;10373892;28;20025;-57
2022/07/07 17:15:35;;;;;;;5.20;2.90;;;;;;;;;;10368620;28;20057;-56
2022/07/07 17:20:36;;;;;;;9.10;2.55;;;;;;;;;;10360526;28;20081;-57
2022/07/07 17:25:37;;;;;;;7.38;2.55;;;;;;;;;;10365806;28;20050;-58
2022/07/07 17:30:38;;;;;;;7.03;2.58;;;;;;;;;;10376576;28;20052;-55
2022/07/07 17:35:38;;;;;;;8.27;2.88;;;;;;;;;;10375348;28;20041;-58
2022/07/07 17:40:39;;;;;;;8.98;2.90;;;;;;;;;;10371433;28;20386;-55
2022/07/07 17:45:40;;;;;;;6.00;2.80;;;;;;;;;;10382988;28;20128;-57
2022/07/07 17:50:41;;;;;;;5.75;3.40;;;;;;;;;;10375580;28;20033;-50
2022/07/07 17:55:43;;;;;;;10.50;2.38;;;;;;;;;;10372086;28;20433;-59
2022/07/07 18:00:44;;;;;;;6.28;3.00;;;;;;;;;;10360117;28;20048;-58
2022/07/07 18:05:48;;;;;;;7.38;3.40;;;;;;;;;;10354278;28;20051;-54
2022/07/07 18:10:48;;;;;;;8.32;4.07;;;;;;;;;;10359180;28;20415;-58
2022/07/07 18:15:49;;;;;;;8.13;3.63;;;;;;;;;;10369953;28;20041;-54
2022/07/07 18:20:50;;;;;;;7.32;2.78;;;;;;;;;;10371878;28;20037;-61
2022/07/07 18:25:50;;;;;;;8.93;3.00;;;;;;;;;;10359822;28;20342;-61
2022/07/07 18:30:51;;;;;;;3.42;2.80;;;;;;;;;;10370559;28;20121;-61
2022/07/07 18:35:52;;;;;;;8.48;2.70;;;;;;;;;;10373041;28;20102;-60
2022/07/07 18:40:53;;;;;;;4.50;2.92;;;;;;;;;;10373609;28;20037;-59
2022/07/07 18:45:53;;;;;;;6.38;2.72;;;;;;;;;;10375881;28;20033;-59
2022/07/07 18:50:54;;;;;;;5.07;2.65;;;;;;;;;;10371706;28;20029;-61
2022/07/07 18:55:55;;;;;;;2.08;1.90;;;;;;;;;;10373473;28;20490;-58
2022/07/07 19:00:57;;;;;;;3.35;1.90;;;;;;;;;;10372733;28;20033;-60
2022/07/07 19:05:58;;;;;;;5.10;1.83;;;;;;;;;;10370053;28;20385;-61
2022/07/07 19:10:59;;;;;;;4.47;2.28;;;;;;;;;;10361137;28;20045;-60
2022/07/07 19:16:00;;;;;;;3.88;2.50;;;;;;;;;;10354007;28;20022;-60
2022/07/07 19:21:02;;;;;;;2.70;2.22;;;;;;;;;;10380122;28;20056;-60
2022/07/07 19:26:03;;;;;;;5.57;2.42;;;;;;;;;;10385362;28;20046;-60
2022/07/07 19:31:04;;;;;;;13.48;2.78;;;;;;;;;;10364756;28;20085;-59
2022/07/07 19:36:05;;;;;;;5.38;1.98;;;;;;;;;;10352853;28;20030;-62
2022/07/07 19:41:08;;;;;;;5.78;2.58;;;;;;;;;;10363761;28;20030;-62
2022/07/07 19:46:09;;;;;;;2.60;1.80;;;;;;;;;;10367823;28;20128;-62
2022/07/07 19:51:10;;;;;;;2.40;1.75;;;;;;;;;;10360064;28;20038;-61
2022/07/07 19:56:10;;;;;;;1.73;1.63;;;;;;;;;;10363211;28;20493;-62
2022/07/07 20:01:11;;;;;;;3.17;1.48;;;;;;;;;;10372252;28;20033;-60
2022/07/07 20:06:12;;;;;;;3.70;1.70;;;;;;;;;;10373195;28;20065;-60
2022/07/07 20:11:13;;;;;;;6.28;1.60;;;;;;;;;;10372246;28;20033;-60
2022/07/07 20:16:14;;;;;;;3.60;1.50;;;;;;;;;;10358937;28;20125;-56
2022/07/07 20:21:16;;;;;;;1.52;1.30;;;;;;;;;;10358416;28;20488;-55
2022/07/07 20:26:17;;;;;;;3.58;1.33;;;;;;;;;;10357970;28;20058;-58
2022/07/07 20:31:18;;;;;;;2.75;1.45;;;;;;;;;;10358258;28;20026;-59
2022/07/07 20:36:19;;;;;;;3.42;1.27;;;;;;;;;;10368412;28;20029;-59
2022/07/07 20:41:23;;;;;;;2.97;1.50;;;;;;;;;;10374731;28;20036;-60
2022/07/07 20:46:24;;;;;;;1.65;1.52;;;;;;;;;;10373925;28;20042;-60
2022/07/07 20:51:24;;;;;;;1.88;1.25;;;;;;;;;;10371076;28;20459;-60
2022/07/07 20:56:25;;;;;;;2.22;1.20;;;;;;;;;;10373465;28;20366;-60
2022/07/07 21:01:26;;;;;;;2.03;1.30;;;;;;;;;;10367954;28;20022;-62
2022/07/07 21:06:27;;;;;;;5.07;1.20;;;;;;;;;;10374583;28;20387;-58
2022/07/07 21:11:27;;;;;;;7.97;1.10;;;;;;;;;;10382955;28;20026;-59
2022/07/07 21:16:28;;;;;;;1.98;1.10;;;;;;;;;;10387720;28;20036;-58
2022/07/07 21:21:30;;;;;;;2.47;1.30;;;;;;;;;;10377869;28;20488;-60
2022/07/07 21:26:31;;;;;;;2.30;1.58;;;;;;;;;;10358697;28;20410;-58
2022/07/07 21:31:32;;;;;;;4.00;1.30;;;;;;;;;;10376350;28;20040;-59
2022/07/07 21:36:33;;;;;;;3.88;1.40;;;;;;;;;;10373296;28;20393;-60
2022/07/07 21:41:34;;;;;;;3.65;1.40;;;;;;;;;;10368743;28;20022;-59
2022/07/07 21:46:34;;;;;;;6.65;1.50;;;;;;;;;;10362052;28;20040;-63
2022/07/07 21:51:35;;;;;;;4.85;1.98;;;;;;;;;;10369882;28;20041;-61
2022/07/07 21:56:37;;;;;;;5.65;1.83;;;;;;;;;;10370378;28;20029;-63
2022/07/07 22:01:37;;;;;;;6.97;1.60;;;;;;;;;;10376819;28;20026;-64
2022/07/07 22:11:59;;;;;;;3.50;1.38;;;;;;;;;;10376873;28;20033;-64
2022/07/07 22:17:00;;;;;;;8.05;1.75;;;;;;;;;;10384116;28;20480;-65
2022/07/07 22:22:00;;;;;;;3.58;1.20;;;;;;;;;;10373348;28;20095;-67
2022/07/07 22:27:01;;;;;;;3.08;1.58;;;;;;;;;;10371665;28;20054;-67
2022/07/07 22:32:02;;;;;;;2.88;1.60;;;;;;;;;;10369142;28;20243;-66
2022/07/07 22:37:04;;;;;;;2.45;1.30;;;;;;;;;;10363967;28;20446;-66
2022/07/07 22:42:04;;;;;;;4.55;1.83;;;;;;;;;;10374887;28;20480;-69
2022/07/07 22:47:05;;;;;;;8.07;1.52;;;;;;;;;;10361224;28;20128;-59
2022/07/07 22:52:06;;;;;;;4.50;1.70;;;;;;;;;;10362849;28;20103;-58
2022/07/07 22:57:07;;;;;;;2.83;1.48;;;;;;;;;;10352496;28;20026;-59
2022/07/07 23:02:07;;;;;;;2.95;1.25;;;;;;;;;;10357425;28;20030;-58
2022/07/07 23:07:08;;;;;;;3.25;1.25;;;;;;;;;;10373510;28;20034;-58
2022/07/07 23:12:09;;;;;;;3.88;1.08;;;;;;;;;;10366183;28;20026;-59
2022/07/07 23:17:09;;;;;;;5.35;1.60;;;;;;;;;;10359728;28;20296;-59
2022/07/07 23:22:10;;;;;;;7.90;1.30;;;;;;;;;;10362855;28;20037;-59
2022/07/07 23:27:11;;;;;;;5.55;1.38;;;;;;;;;;10359541;28;20064;-58
2022/07/07 23:32:11;;;;;;;2.40;1.40;;;;;;;;;;10359283;28;20045;-59
2022/07/07 23:37:12;;;;;;;4.85;1.25;;;;;;;;;;10362513;28;20084;-59
2022/07/07 23:42:13;;;;;;;5.10;1.30;;;;;;;;;;10361087;28;20030;-59
2022/07/07 23:47:18;;;;;;;3.83;1.15;;;;;;;;;;10360852;28;20040;-59
2022/07/07 23:52:19;;;;;;;4.03;1.30;;;;;;;;;;10357789;28;20496;-60
2022/07/07 23:57:20;;;;;;;3.13;1.30;;;;;;;;;;10363970;28;20029;-60
